Time;durP1;ratioP1;P1;durP2;ratioP2;P2;SDS_P1;SDS_P2;PMS_P1;PMS_P2;Temp;Humidity;BMP_temperature;BMP_pressure;BME280_temperature;BME280_humidity;BME280_pressure;Samples;Min_cycle;Max_cycle;Signal;HPM_P1;HPM_P2
2021/12/20 00:01:58;;;;;;;31.55;5.30;;;6.00;99.90;;;;;;4958088;28;20049;-82
2021/12/20 00:04:23;;;;;;;33.70;5.50;;;5.90;99.90;;;;;;4965439;28;20039;-82
2021/12/20 00:06:49;;;;;;;30.15;5.05;;;5.90;99.90;;;;;;4961440;28;20045;-82
2021/12/20 00:09:15;;;;;;;28.08;5.20;;;5.80;99.90;;;;;;4993761;28;20073;-82
2021/12/20 00:11:41;;;;;;;32.95;5.35;;;5.80;99.90;;;;;;4976526;28;20422;-82
2021/12/20 00:14:08;;;;;;;28.98;4.97;;;5.80;99.90;;;;;;5010070;28;20461;-82
2021/12/20 00:16:34;;;;;;;29.90;5.53;;;5.70;99.90;;;;;;4960836;28;20054;-82
2021/12/20 00:19:00;;;;;;;34.15;5.03;;;5.70;99.90;;;;;;4961054;28;20549;-82
2021/12/20 00:21:25;;;;;;;27.90;5.15;;;5.60;99.90;;;;;;5009208;28;20076;-82
2021/12/20 00:23:51;;;;;;;30.20;5.22;;;5.60;99.90;;;;;;4993308;28;20038;-82
2021/12/20 00:26:17;;;;;;;30.20;5.10;;;5.60;99.90;;;;;;4992289;28;20397;-82
2021/12/20 00:28:42;;;;;;;33.05;5.32;;;5.50;99.90;;;;;;4993272;28;20576;-82
2021/12/20 00:31:08;;;;;;;24.17;4.57;;;5.40;99.90;;;;;;4977295;28;20482;-83
2021/12/20 00:33:34;;;;;;;29.42;4.90;;;5.40;99.90;;;;;;4977013;28;20045;-82
2021/12/20 00:36:01;;;;;;;30.95;5.22;;;5.30;99.90;;;;;;4993024;28;20461;-82
2021/12/20 00:41:12;;;;;;;27.33;4.45;;;5.20;99.90;;;;;;4992360;28;20047;-82
2021/12/20 00:43:38;;;;;;;22.10;4.82;;;5.20;99.90;;;;;;4977215;28;20490;-82
2021/12/20 00:46:04;;;;;;;29.85;5.15;;;5.10;99.90;;;;;;4993002;28;20049;-82
2021/12/20 00:48:30;;;;;;;29.23;5.15;;;5.00;99.90;;;;;;4976565;28;20042;-82
2021/12/20 00:50:55;;;;;;;26.95;4.88;;;5.00;99.90;;;;;;4976279;28;20482;-82
2021/12/20 00:53:22;;;;;;;26.52;4.78;;;4.90;99.90;;;;;;4996345;28;20113;-82
2021/12/20 00:55:48;;;;;;;27.48;4.40;;;4.90;99.90;;;;;;4995077;28;20104;-82
2021/12/20 00:58:14;;;;;;;29.65;4.90;;;4.90;99.90;;;;;;4995657;28;20042;-82
2021/12/20 01:00:46;;;;;;;24.77;4.63;;;4.80;99.90;;;;;;4995625;28;20042;-82
2021/12/20 01:03:13;;;;;;;33.00;4.95;;;4.70;99.90;;;;;;5029193;28;20069;-82
2021/12/20 01:05:40;;;;;;;25.27;4.50;;;4.80;99.90;;;;;;5012337;28;20057;-82
2021/12/20 01:08:08;;;;;;;27.38;5.03;;;4.70;99.90;;;;;;4996639;28;20520;-82
2021/12/20 01:10:37;;;;;;;28.02;4.65;;;4.60;99.90;;;;;;4995292;28;20034;-82
2021/12/20 01:13:04;;;;;;;28.55;4.65;;;4.60;99.90;;;;;;5029186;28;20042;-82
2021/12/20 01:15:44;;;;;;;27.20;4.50;;;4.60;99.90;;;;;;4996166;28;20115;-82
2021/12/20 01:18:10;;;;;;;28.95;5.07;;;4.60;99.90;;;;;;4996412;28;20081;-82
2021/12/20 01:20:36;;;;;;;24.85;4.57;;;4.50;99.90;;;;;;4980019;28;20123;-82
2021/12/20 01:23:02;;;;;;;28.58;4.55;;;4.60;99.90;;;;;;4996173;28;20042;-82
2021/12/20 01:25:28;;;;;;;31.65;4.88;;;4.40;99.90;;;;;;4995166;28;20061;-82
2021/12/20 01:27:54;;;;;;;33.20;4.88;;;4.40;99.90;;;;;;5028866;28;20199;-82
2021/12/20 01:30:22;;;;;;;23.70;4.25;;;4.60;99.90;;;;;;4963604;28;20048;-82
2021/12/20 01:32:48;;;;;;;27.30;4.55;;;4.30;99.90;;;;;;4996183;28;20038;-82
2021/12/20 01:35:15;;;;;;;24.90;4.47;;;4.30;99.90;;;;;;5012190;28;20125;-82
2021/12/20 01:37:43;;;;;;;27.65;4.60;;;4.30;99.90;;;;;;5012230;28;20049;-82
2021/12/20 01:40:12;;;;;;;27.83;4.63;;;4.30;99.90;;;;;;4995183;28;20071;-82
2021/12/20 01:42:38;;;;;;;24.65;4.60;;;4.30;99.90;;;;;;5028485;28;20445;-82
2021/12/20 01:45:05;;;;;;;32.28;4.65;;;4.20;99.90;;;;;;4995648;28;20544;-82
2021/12/20 01:47:35;;;;;;;23.90;4.22;;;4.20;99.90;;;;;;4995692;28;20081;-82
2021/12/20 01:50:14;;;;;;;30.15;4.97;;;4.20;99.90;;;;;;4996478;28;20042;-82
2021/12/20 01:52:42;;;;;;;22.38;3.90;;;4.10;99.90;;;;;;5012433;28;20137;-82
2021/12/20 01:55:18;;;;;;;23.33;4.25;;;4.10;99.90;;;;;;4994903;28;20106;-82
2021/12/20 01:57:45;;;;;;;29.35;4.70;;;4.10;99.90;;;;;;4995570;28;20048;-82
2021/12/20 02:00:23;;;;;;;26.85;4.70;;;4.10;99.90;;;;;;4995516;28;20405;-82
2021/12/20 02:02:56;;;;;;;23.05;4.47;;;4.10;99.90;;;;;;5011798;28;20498;-82
2021/12/20 02:05:28;;;;;;;24.95;4.40;;;4.00;99.90;;;;;;4994956;28;20498;-82
2021/12/20 02:08:01;;;;;;;18.52;3.92;;;4.50;99.90;;;;;;4996309;28;20504;-82
2021/12/20 02:10:27;;;;;;;23.75;4.20;;;4.00;99.90;;;;;;5016054;28;20046;-82
2021/12/20 02:12:53;;;;;;;25.38;4.35;;;3.90;99.90;;;;;;5012613;28;20121;-82
2021/12/20 02:15:19;;;;;;;22.25;4.15;;;4.00;99.90;;;;;;4979600;28;20049;-82
2021/12/20 02:17:45;;;;;;;30.73;4.60;;;3.80;99.90;;;;;;4979712;28;20050;-82
2021/12/20 02:20:29;;;;;;;23.42;3.90;;;3.80;99.90;;;;;;5012165;28;20038;-82
2021/12/20 02:22:57;;;;;;;25.35;4.40;;;3.80;99.90;;;;;;5012286;28;20049;-82
2021/12/20 02:25:24;;;;;;;20.80;4.25;;;3.70;99.90;;;;;;4995069;28;20112;-82
2021/12/20 02:27:50;;;;;;;25.38;3.80;;;3.70;99.90;;;;;;4979569;28;20084;-82
2021/12/20 02:38:30;;;;;;;23.45;4.28;;;3.50;99.90;;;;;;4995530;28;20054;-82
2021/12/20 02:41:03;;;;;;;19.05;4.20;;;3.50;99.90;;;;;;4978122;28;20057;-82
2021/12/20 02:43:33;;;;;;;19.92;4.13;;;3.50;99.90;;;;;;4978878;28;20039;-82
2021/12/20 02:46:02;;;;;;;23.55;4.18;;;3.50;99.90;;;;;;4962892;28;20042;-82
2021/12/20 02:48:28;;;;;;;20.92;3.60;;;3.50;99.90;;;;;;4995161;28;20077;-82
2021/12/20 02:50:55;;;;;;;25.25;4.70;;;3.40;99.90;;;;;;5011075;28;20136;-82
2021/12/20 02:53:21;;;;;;;27.83;4.68;;;3.30;99.90;;;;;;4983222;28;20049;-82
2021/12/20 02:55:46;;;;;;;21.63;4.25;;;3.40;99.90;;;;;;4981176;28;20383;-82
2021/12/20 02:58:12;;;;;;;23.17;4.05;;;3.30;99.90;;;;;;4998381;28;20469;-82
2021/12/20 03:00:38;;;;;;;19.63;3.90;;;3.30;99.90;;;;;;5030930;28;20037;-82
2021/12/20 03:03:04;;;;;;;21.20;3.55;;;3.30;99.90;;;;;;4965800;28;20044;-82
2021/12/20 03:05:30;;;;;;;23.92;4.03;;;3.40;99.90;;;;;;4959392;28;20406;-82
2021/12/20 03:07:57;;;;;;;23.20;4.20;;;3.30;99.90;;;;;;5007975;28;20130;-82
2021/12/20 03:10:24;;;;;;;19.63;3.95;;;3.20;99.90;;;;;;4974371;28;20058;-82
2021/12/20 03:12:50;;;;;;;19.20;3.55;;;3.10;99.90;;;;;;4975370;28;20038;-82
2021/12/20 03:15:21;;;;;;;26.83;3.92;;;3.10;99.90;;;;;;4990979;28;20049;-83
2021/12/20 03:17:47;;;;;;;18.65;3.45;;;3.20;99.90;;;;;;4991978;28;20082;-82
2021/12/20 03:20:14;;;;;;;26.65;4.40;;;3.10;99.90;;;;;;4975010;28;20050;-82
2021/12/20 03:22:43;;;;;;;26.08;4.38;;;3.00;99.90;;;;;;4990554;28;20051;-82
2021/12/20 03:25:09;;;;;;;27.35;4.47;;;3.00;99.90;;;;;;4990736;28;20402;-82
2021/12/20 03:27:35;;;;;;;23.83;4.07;;;3.00;99.90;;;;;;4978144;28;20061;-82
2021/12/20 03:30:02;;;;;;;24.45;3.88;;;3.00;99.90;;;;;;4971882;28;20043;-81
2021/12/20 03:32:28;;;;;;;28.92;4.20;;;3.00;99.90;;;;;;4955681;29;20098;-81
2021/12/20 03:34:53;;;;;;;29.30;4.32;;;2.90;99.90;;;;;;4987661;28;20110;-81
2021/12/20 03:37:19;;;;;;;27.55;3.95;;;3.00;99.90;;;;;;4971739;28;20046;-81
2021/12/20 03:39:45;;;;;;;23.63;4.22;;;2.90;99.90;;;;;;4987917;28;20043;-81
2021/12/20 03:42:11;;;;;;;24.00;3.90;;;2.90;99.90;;;;;;4970629;28;20039;-81
2021/12/20 03:44:43;;;;;;;31.38;4.20;;;3.00;99.90;;;;;;4971539;28;20094;-81
2021/12/20 03:47:09;;;;;;;26.52;4.05;;;2.90;99.90;;;;;;4954477;29;20039;-81
2021/12/20 03:49:34;;;;;;;23.42;3.65;;;3.00;99.90;;;;;;4987700;28;20050;-81
2021/12/20 03:52:01;;;;;;;32.15;4.22;;;3.00;99.90;;;;;;4954791;28;20051;-81
2021/12/20 03:54:27;;;;;;;26.20;3.88;;;3.10;99.90;;;;;;4987413;28;20094;-81
2021/12/20 03:56:52;;;;;;;24.77;3.90;;;3.20;99.90;;;;;;4986376;28;20043;-81
2021/12/20 03:59:18;;;;;;;24.30;4.13;;;2.90;99.90;;;;;;4954987;29;20515;-81
2021/12/20 04:01:44;;;;;;;19.23;3.45;;;2.90;99.90;;;;;;4987084;28;20044;-81
2021/12/20 04:04:10;;;;;;;19.35;3.42;;;2.90;99.90;;;;;;4987136;28;20039;-81
2021/12/20 04:06:36;;;;;;;21.08;3.80;;;2.80;99.90;;;;;;4970896;28;20090;-81
2021/12/20 04:09:03;;;;;;;20.38;3.45;;;2.80;99.90;;;;;;4955104;29;20063;-81
2021/12/20 04:11:29;;;;;;;19.75;3.72;;;2.80;99.90;;;;;;4954547;29;20046;-81
2021/12/20 04:13:56;;;;;;;19.63;3.40;;;2.70;99.90;;;;;;4954849;29;20039;-81
2021/12/20 04:16:22;;;;;;;17.35;3.40;;;2.70;99.90;;;;;;4963670;28;20046;-81
2021/12/20 04:18:48;;;;;;;20.08;3.63;;;2.70;99.90;;;;;;4958337;28;20508;-81
2021/12/20 04:21:14;;;;;;;20.05;3.40;;;2.90;99.90;;;;;;4957850;28;20053;-81
2021/12/20 04:23:40;;;;;;;19.60;3.60;;;2.70;99.90;;;;;;4973961;28;20043;-81
2021/12/20 04:26:05;;;;;;;18.00;3.38;;;2.70;99.90;;;;;;4956937;28;20035;-81
2021/12/20 04:28:31;;;;;;;19.30;3.28;;;2.80;99.90;;;;;;4957823;28;20031;-81
2021/12/20 04:30:57;;;;;;;20.25;3.45;;;2.70;99.90;;;;;;4973701;28;20043;-81
2021/12/20 04:33:23;;;;;;;18.05;3.10;;;2.70;99.90;;;;;;4973726;28;20498;-81
2021/12/20 04:35:49;;;;;;;18.30;3.20;;;2.60;99.90;;;;;;4941380;28;20500;-81
2021/12/20 04:38:15;;;;;;;19.35;3.55;;;2.70;99.90;;;;;;4957658;28;20041;-81
2021/12/20 04:40:41;;;;;;;21.23;3.45;;;2.70;99.90;;;;;;4972875;28;20035;-81
2021/12/20 04:43:07;;;;;;;22.02;3.45;;;2.70;99.90;;;;;;4973855;28;20043;-81
2021/12/20 04:45:34;;;;;;;20.15;3.17;;;2.60;99.90;;;;;;4973614;28;20039;-81
2021/12/20 04:48:00;;;;;;;19.70;3.45;;;2.60;99.90;;;;;;4974164;28;20045;-81
2021/12/20 04:50:28;;;;;;;19.38;3.33;;;2.80;99.90;;;;;;4973518;28;20410;-82
2021/12/20 04:52:55;;;;;;;24.83;3.88;;;2.50;99.90;;;;;;4957459;28;20081;-82
2021/12/20 04:55:22;;;;;;;18.63;3.65;;;2.50;99.90;;;;;;4956592;28;20138;-82
2021/12/20 04:57:49;;;;;;;22.70;3.30;;;2.40;99.90;;;;;;4974003;28;20406;-82
2021/12/20 05:00:20;;;;;;;16.95;3.00;;;2.40;99.90;;;;;;4973493;28;20046;-82
2021/12/20 05:02:46;;;;;;;18.88;3.33;;;2.40;99.90;;;;;;4973937;28;20045;-82
2021/12/20 05:05:12;;;;;;;18.98;3.40;;;2.40;99.90;;;;;;4979017;28;20060;-82
2021/12/20 05:07:39;;;;;;;17.23;3.50;;;2.70;99.90;;;;;;5028592;28;20046;-82
2021/12/20 05:10:12;;;;;;;19.98;3.25;;;2.30;99.90;;;;;;4963605;28;20041;-82
2021/12/20 05:12:40;;;;;;;16.65;2.95;;;2.40;99.90;;;;;;4996629;28;20045;-82
2021/12/20 05:15:07;;;;;;;20.25;3.47;;;2.30;99.90;;;;;;5012449;28;20124;-82
2021/12/20 05:17:32;;;;;;;16.27;3.00;;;2.40;99.90;;;;;;4979951;28;20128;-82
2021/12/20 05:19:58;;;;;;;18.48;3.10;;;2.60;99.90;;;;;;5012604;28;20069;-82
2021/12/20 05:22:24;;;;;;;19.80;3.47;;;2.40;99.90;;;;;;4979941;28;20553;-82
2021/12/20 05:24:50;;;;;;;20.65;3.67;;;2.40;99.90;;;;;;5029140;28;20267;-82
2021/12/20 05:27:15;;;;;;;20.00;3.25;;;2.80;99.90;;;;;;4995386;28;20042;-82
2021/12/20 05:29:41;;;;;;;17.35;2.88;;;2.30;99.90;;;;;;4995637;28;20049;-82
2021/12/20 05:32:08;;;;;;;18.00;3.40;;;2.30;99.90;;;;;;5012112;28;20046;-82
2021/12/20 05:34:36;;;;;;;20.25;3.10;;;2.30;99.90;;;;;;5012652;28;20084;-82
2021/12/20 05:37:02;;;;;;;16.98;3.22;;;2.20;99.90;;;;;;4963838;28;20049;-81
2021/12/20 05:39:28;;;;;;;16.27;3.05;;;2.20;99.90;;;;;;4996184;28;20042;-81
2021/12/20 05:41:53;;;;;;;18.88;3.22;;;2.20;99.90;;;;;;4995075;28;20038;-81
2021/12/20 05:44:19;;;;;;;17.08;3.10;;;2.20;99.90;;;;;;4960336;28;20069;-81
2021/12/20 05:46:45;;;;;;;17.58;2.88;;;2.20;99.90;;;;;;4996092;28;20038;-82
2021/12/20 05:49:10;;;;;;;13.43;2.80;;;2.20;99.90;;;;;;4987519;28;20097;-81
2021/12/20 05:51:36;;;;;;;17.25;3.00;;;2.20;99.90;;;;;;5011521;28;20049;-81
2021/12/20 05:54:02;;;;;;;19.67;3.15;;;2.50;99.90;;;;;;5013382;28;20052;-81
2021/12/20 05:56:28;;;;;;;14.05;2.92;;;2.20;99.90;;;;;;4998450;28;20144;-81
2021/12/20 05:58:53;;;;;;;17.60;3.03;;;2.20;99.90;;;;;;4983423;28;20100;-81
2021/12/20 06:01:19;;;;;;;14.95;3.00;;;2.20;99.90;;;;;;5015656;28;20119;-81
2021/12/20 06:03:45;;;;;;;15.57;2.88;;;2.20;99.90;;;;;;5015870;28;20125;-81
2021/12/20 06:06:12;;;;;;;14.27;2.72;;;2.20;99.90;;;;;;5015260;28;20592;-81
2021/12/20 06:08:38;;;;;;;18.30;3.10;;;2.40;99.90;;;;;;4998783;28;20099;-81
2021/12/20 06:11:03;;;;;;;14.25;2.90;;;2.90;99.90;;;;;;4995803;28;20496;-81
2021/12/20 06:13:29;;;;;;;15.77;3.00;;;2.20;99.90;;;;;;5015152;28;20044;-82
2021/12/20 06:15:55;;;;;;;15.27;3.15;;;2.20;99.90;;;;;;4996404;28;20046;-81
2021/12/20 06:18:20;;;;;;;17.25;2.92;;;2.30;99.90;;;;;;4982276;28;20050;-81
2021/12/20 06:20:46;;;;;;;20.92;3.30;;;2.30;99.90;;;;;;4991818;28;20038;-82
2021/12/20 06:23:12;;;;;;;15.73;2.60;;;2.20;99.90;;;;;;5009218;28;20076;-81
2021/12/20 06:25:38;;;;;;;12.68;2.60;;;2.60;99.90;;;;;;5013771;28;20045;-81
2021/12/20 06:28:04;;;;;;;14.45;2.70;;;2.10;99.90;;;;;;5027678;28;20038;-81
2021/12/20 06:30:30;;;;;;;17.42;2.80;;;2.30;99.90;;;;;;5009216;28;20052;-81
2021/12/20 06:32:56;;;;;;;15.80;2.75;;;2.10;99.90;;;;;;4969849;28;20042;-81
2021/12/20 06:35:21;;;;;;;14.45;2.70;;;2.80;99.90;;;;;;4992409;28;20109;-81
2021/12/20 06:37:58;;;;;;;16.55;2.92;;;2.00;99.90;;;;;;4996778;28;20124;-81
2021/12/20 06:40:24;;;;;;;17.08;2.70;;;1.90;99.90;;;;;;4998726;28;20092;-81
2021/12/20 06:42:50;;;;;;;12.65;2.72;;;1.80;99.90;;;;;;5015313;28;20500;-81
2021/12/20 06:45:16;;;;;;;15.00;2.70;;;1.80;99.90;;;;;;4998810;28;20073;-81
2021/12/20 06:47:42;;;;;;;14.82;2.72;;;2.20;99.90;;;;;;4997673;28;20044;-81
2021/12/20 06:50:08;;;;;;;20.50;3.30;;;1.70;99.90;;;;;;5010169;28;20046;-82
2021/12/20 06:52:34;;;;;;;16.23;2.92;;;1.60;99.90;;;;;;4994974;28;20096;-82
2021/12/20 06:55:00;;;;;;;17.42;3.47;;;1.50;99.90;;;;;;4998204;28;20065;-82
2021/12/20 06:57:26;;;;;;;17.92;3.30;;;1.50;99.90;;;;;;4996413;28;20489;-82
2021/12/20 06:59:52;;;;;;;22.08;3.85;;;1.60;99.90;;;;;;4998086;28;20104;-82
2021/12/20 07:02:18;;;;;;;22.98;4.32;;;1.80;99.90;;;;;;4997779;28;20409;-81
2021/12/20 07:04:44;;;;;;;13.45;3.58;;;1.40;99.90;;;;;;5015095;28;20038;-81
2021/12/20 07:07:09;;;;;;;14.00;3.95;;;1.60;99.90;;;;;;4990791;28;20058;-81
2021/12/20 07:09:35;;;;;;;18.88;3.90;;;1.30;99.90;;;;;;4978619;28;20066;-81
2021/12/20 07:12:03;;;;;;;17.00;3.78;;;1.40;99.90;;;;;;4989106;28;20058;-81
2021/12/20 07:14:30;;;;;;;16.73;3.50;;;1.30;99.90;;;;;;4993859;28;20108;-81
2021/12/20 07:16:56;;;;;;;17.75;3.42;;;1.80;99.90;;;;;;4993670;28;20502;-81
2021/12/20 07:19:22;;;;;;;17.40;3.17;;;1.40;99.90;;;;;;4976129;28;20058;-81
2021/12/20 07:21:48;;;;;;;20.05;3.72;;;1.90;99.90;;;;;;4975525;28;20043;-81
2021/12/20 07:24:13;;;;;;;14.68;3.55;;;1.40;99.90;;;;;;4993499;28;20042;-81
2021/12/20 07:26:43;;;;;;;16.27;3.88;;;1.50;99.90;;;;;;4959326;28;20380;-81
2021/12/20 07:29:09;;;;;;;13.43;3.50;;;1.50;99.90;;;;;;4977124;28;20081;-82
2021/12/20 07:31:35;;;;;;;17.15;3.95;;;1.60;99.90;;;;;;4959872;28;20073;-81
2021/12/20 07:34:00;;;;;;;16.98;3.90;;;1.70;99.90;;;;;;4977302;28;20049;-81
2021/12/20 07:36:26;;;;;;;18.27;4.18;;;1.50;99.90;;;;;;4973487;28;20045;-81
2021/12/20 07:38:52;;;;;;;16.70;3.80;;;1.50;99.90;;;;;;4977118;28;20046;-81
2021/12/20 07:41:22;;;;;;;17.05;3.97;;;1.40;99.90;;;;;;4960426;28;20047;-81
2021/12/20 07:43:50;;;;;;;22.23;4.05;;;1.40;99.90;;;;;;4990756;28;20038;-81
2021/12/20 07:46:17;;;;;;;23.75;3.97;;;2.00;99.90;;;;;;4988570;28;20038;-81
2021/12/20 07:48:43;;;;;;;18.92;3.67;;;1.30;99.90;;;;;;4959557;28;20097;-81
2021/12/20 07:51:08;;;;;;;18.52;4.13;;;1.30;99.90;;;;;;4976585;28;20494;-82
2021/12/20 07:53:35;;;;;;;16.85;4.10;;;1.20;99.90;;;;;;4993050;28;20453;-82
2021/12/20 07:56:01;;;;;;;18.20;4.00;;;1.20;99.90;;;;;;4980365;28;20140;-82
2021/12/20 07:58:27;;;;;;;19.08;3.83;;;1.90;99.90;;;;;;4992824;28;20050;-82
2021/12/20 08:00:53;;;;;;;27.48;4.63;;;1.10;99.90;;;;;;4974793;28;20062;-82
2021/12/20 08:03:19;;;;;;;21.92;4.13;;;1.00;99.90;;;;;;4976640;28;20080;-81
2021/12/20 08:05:45;;;;;;;22.17;4.60;;;1.10;99.90;;;;;;4980354;28;20058;-81
2021/12/20 08:08:11;;;;;;;24.00;5.07;;;1.10;99.90;;;;;;4995485;28;20050;-83
2021/12/20 08:10:37;;;;;;;25.20;6.03;;;1.30;99.90;;;;;;4984089;28;20093;-82
2021/12/20 08:13:03;;;;;;;28.58;5.75;;;1.50;99.90;;;;;;4996943;28;20037;-81
2021/12/20 08:15:29;;;;;;;31.02;6.03;;;1.80;99.90;;;;;;4988718;28;20049;-81
2021/12/20 08:17:56;;;;;;;23.40;5.13;;;1.90;99.90;;;;;;4987322;28;20390;-81
2021/12/20 08:20:23;;;;;;;23.48;6.00;;;2.00;99.90;;;;;;4979526;28;20043;-81
2021/12/20 08:22:49;;;;;;;25.00;5.00;;;2.00;99.90;;;;;;4997223;28;20057;-81
2021/12/20 08:25:16;;;;;;;21.90;5.82;;;2.10;99.90;;;;;;4978387;28;20044;-81
2021/12/20 08:27:42;;;;;;;33.35;5.80;;;2.20;99.90;;;;;;4957905;28;20512;-81
2021/12/20 08:30:09;;;;;;;17.10;4.43;;;2.30;99.90;;;;;;4995656;28;20042;-81
2021/12/20 08:32:38;;;;;;;20.83;4.95;;;2.30;99.90;;;;;;4988325;28;20050;-81
2021/12/20 08:35:07;;;;;;;22.38;4.80;;;2.60;99.90;;;;;;4987039;28;20041;-81
2021/12/20 08:37:33;;;;;;;22.25;5.35;;;2.50;99.90;;;;;;4998093;28;20042;-81
2021/12/20 08:39:58;;;;;;;24.45;5.10;;;2.70;99.90;;;;;;4995281;28;20100;-81
2021/12/20 08:42:24;;;;;;;17.83;4.18;;;2.80;99.90;;;;;;4983442;28;20042;-81
2021/12/20 08:44:50;;;;;;;21.50;4.72;;;2.80;99.90;;;;;;4987065;28;20142;-81
2021/12/20 08:47:17;;;;;;;26.00;4.57;;;3.10;99.90;;;;;;4981482;28;20122;-81
2021/12/20 08:49:43;;;;;;;21.17;4.45;;;3.40;99.90;;;;;;4984208;28;20046;-81
2021/12/20 08:52:10;;;;;;;20.55;4.25;;;4.10;99.90;;;;;;4983578;28;20077;-81
2021/12/20 08:54:35;;;;;;;23.02;4.50;;;3.50;99.90;;;;;;4986806;28;20035;-82
2021/12/20 08:57:01;;;;;;;19.80;4.20;;;3.40;99.90;;;;;;4985219;28;20107;-82
2021/12/20 08:59:27;;;;;;;22.25;4.82;;;3.60;99.90;;;;;;4980752;28;20452;-82
2021/12/20 09:01:53;;;;;;;22.92;4.70;;;3.80;99.90;;;;;;4976282;28;20425;-82
2021/12/20 09:04:19;;;;;;;25.90;4.97;;;4.00;99.90;;;;;;4965373;28;20058;-82
2021/12/20 09:06:45;;;;;;;21.17;5.18;;;4.10;99.90;;;;;;4991633;28;20061;-82
2021/12/20 09:09:13;;;;;;;22.15;5.95;;;4.10;99.90;;;;;;4991185;28;20086;-81
2021/12/20 09:11:40;;;;;;;20.90;5.50;;;4.40;99.90;;;;;;4991480;28;20511;-81
2021/12/20 09:14:06;;;;;;;17.50;4.80;;;4.10;99.90;;;;;;4993019;28;20046;-81
2021/12/20 09:16:32;;;;;;;21.88;4.93;;;4.20;99.90;;;;;;4963101;28;20058;-81
2021/12/20 09:18:58;;;;;;;15.95;4.03;;;4.80;99.90;;;;;;4999925;28;20046;-81
2021/12/20 09:21:24;;;;;;;19.13;3.95;;;4.20;99.90;;;;;;4996904;28;20094;-81
2021/12/20 09:23:50;;;;;;;18.45;4.00;;;4.60;99.90;;;;;;4988907;28;20054;-81
2021/12/20 09:26:16;;;;;;;15.65;3.58;;;4.90;99.90;;;;;;5004326;28;20038;-81
2021/12/20 09:28:42;;;;;;;20.13;4.38;;;4.40;99.90;;;;;;4991552;28;20065;-81
2021/12/20 09:31:08;;;;;;;22.45;4.78;;;4.40;99.90;;;;;;4985211;28;20044;-83
2021/12/20 09:33:35;;;;;;;19.33;4.32;;;4.40;99.90;;;;;;4968728;28;20445;-82
2021/12/20 09:36:02;;;;;;;21.77;4.60;;;4.40;99.90;;;;;;4977929;28;20494;-82
2021/12/20 09:38:31;;;;;;;23.00;4.82;;;4.40;99.90;;;;;;4980554;28;20074;-82
2021/12/20 09:43:29;;;;;;;23.20;4.90;;;4.40;99.90;;;;;;4988304;28;20109;-82
2021/12/20 09:45:56;;;;;;;17.70;4.35;;;4.30;99.90;;;;;;4973085;28;20054;-82
2021/12/20 09:48:22;;;;;;;19.08;4.60;;;4.50;99.90;;;;;;4983704;28;20043;-82
2021/12/20 09:50:48;;;;;;;21.60;4.88;;;4.80;99.90;;;;;;4983195;28;20039;-83
2021/12/20 09:53:14;;;;;;;19.67;4.20;;;4.60;99.90;;;;;;4983588;28;20042;-83
2021/12/20 09:55:46;;;;;;;24.33;4.63;;;4.60;99.90;;;;;;4993158;28;20391;-83
2021/12/20 09:58:13;;;;;;;16.77;4.15;;;4.80;99.90;;;;;;4973576;28;20604;-82
2021/12/20 10:00:38;;;;;;;16.65;4.53;;;4.80;99.90;;;;;;4982888;28;20406;-82
2021/12/20 10:03:05;;;;;;;18.83;4.57;;;4.70;99.90;;;;;;4994659;28;20044;-82
2021/12/20 10:05:31;;;;;;;16.25;4.43;;;4.70;99.90;;;;;;4994750;28;20058;-82
2021/12/20 10:07:58;;;;;;;21.58;4.80;;;4.80;99.90;;;;;;4974868;28;20043;-82
2021/12/20 10:10:36;;;;;;;19.42;4.72;;;4.80;99.90;;;;;;4973227;28;20088;-82
2021/12/20 10:13:02;;;;;;;19.13;4.40;;;4.90;99.90;;;;;;4988536;28;20129;-82
2021/12/20 10:15:39;;;;;;;21.90;5.38;;;5.00;99.90;;;;;;4974379;28;20034;-82
2021/12/20 10:18:12;;;;;;;20.42;5.20;;;5.00;99.90;;;;;;4974837;28;20039;-84
2021/12/20 10:20:38;;;;;;;21.13;5.60;;;5.00;99.90;;;;;;4989250;28;20042;-83
2021/12/20 10:23:31;;;;;;;21.73;5.47;;;5.10;99.90;;;;;;4972913;28;20047;-83
2021/12/20 10:26:09;;;;;;;23.70;5.82;;;5.30;99.90;;;;;;4985748;28;20133;-83
2021/12/20 10:28:37;;;;;;;22.05;5.53;;;5.30;99.90;;;;;;4973638;28;20038;-82
2021/12/20 10:31:05;;;;;;;22.35;5.65;;;5.30;99.90;;;;;;4987497;28;20046;-82
2021/12/20 10:33:31;;;;;;;20.38;5.88;;;5.30;99.90;;;;;;4989157;28;20398;-82
2021/12/20 10:36:00;;;;;;;21.85;6.05;;;5.30;99.90;;;;;;4979933;28;20049;-82
2021/12/20 10:38:43;;;;;;;18.83;5.72;;;5.30;99.90;;;;;;5006145;28;20038;-82
2021/12/20 10:41:18;;;;;;;23.40;6.15;;;5.30;99.90;;;;;;5027359;28;20086;-82
2021/12/20 10:43:54;;;;;;;23.95;5.72;;;5.30;99.90;;;;;;5027839;28;20038;-82
2021/12/20 10:46:25;;;;;;;23.23;5.80;;;5.30;99.90;;;;;;5027536;28;20037;-82
2021/12/20 10:49:02;;;;;;;17.40;5.20;;;5.20;99.90;;;;;;4994860;28;20038;-82
2021/12/20 10:51:49;;;;;;;18.58;5.50;;;5.30;99.90;;;;;;4990370;28;20042;-83
2021/12/20 10:54:18;;;;;;;20.38;5.47;;;5.30;99.90;;;;;;5027130;28;20081;-83
2021/12/20 10:56:56;;;;;;;19.77;5.57;;;5.40;99.90;;;;;;5027057;28;20490;-82
2021/12/20 10:59:27;;;;;;;16.02;5.00;;;5.40;99.90;;;;;;4994546;28;20125;-82
2021/12/20 11:05:13;;;;;;;15.98;4.97;;;5.50;99.90;;;;;;4981524;28;20039;-83
2021/12/20 11:10:16;;;;;;;14.95;4.07;;;5.70;99.90;;;;;;5011039;28;20039;-83
2021/12/20 11:12:42;;;;;;;18.10;4.50;;;5.70;99.90;;;;;;5007642;28;20454;-83
2021/12/20 11:15:12;;;;;;;14.15;4.13;;;5.70;99.90;;;;;;5011042;28;20453;-83
2021/12/20 11:17:46;;;;;;;13.13;3.42;;;5.70;99.90;;;;;;5009977;28;20125;-82
2021/12/20 11:20:19;;;;;;;13.18;3.60;;;5.70;99.90;;;;;;4988043;28;20046;-83
2021/12/20 11:22:44;;;;;;;14.35;3.63;;;5.70;99.90;;;;;;4993973;28;20046;-83
2021/12/20 11:25:15;;;;;;;13.02;3.33;;;5.70;99.90;;;;;;4993904;28;20109;-83
2021/12/20 11:27:51;;;;;;;11.40;2.85;;;5.70;99.90;;;;;;4978737;28;20038;-83
2021/12/20 11:30:28;;;;;;;13.88;3.28;;;5.70;99.90;;;;;;5010309;28;20517;-83
2021/12/20 11:32:55;;;;;;;11.70;2.95;;;5.70;99.90;;;;;;5010798;28;20070;-83
2021/12/20 11:35:23;;;;;;;13.43;3.30;;;5.70;99.90;;;;;;5026758;28;20165;-83
2021/12/20 11:37:49;;;;;;;15.88;4.22;;;5.70;99.90;;;;;;4994668;28;20490;-83
2021/12/20 11:40:18;;;;;;;15.43;3.83;;;5.70;99.90;;;;;;5009950;28;20042;-83
2021/12/20 11:42:43;;;;;;;13.57;4.18;;;5.80;99.90;;;;;;4993439;28;20125;-83
2021/12/20 11:45:14;;;;;;;15.88;4.35;;;5.90;99.90;;;;;;4994208;28;20069;-83
2021/12/20 11:47:46;;;;;;;15.15;4.05;;;5.80;99.90;;;;;;5027495;28;20077;-83
2021/12/20 11:50:15;;;;;;;16.02;4.75;;;5.80;99.90;;;;;;4994074;28;20050;-83
2021/12/20 11:52:44;;;;;;;19.42;5.03;;;5.70;99.90;;;;;;4994426;28;20046;-83
2021/12/20 11:55:19;;;;;;;18.27;4.95;;;5.70;99.90;;;;;;4993227;28;20125;-83
2021/12/20 11:57:50;;;;;;;15.88;5.00;;;5.70;99.90;;;;;;5025843;28;20046;-83
2021/12/20 12:00:20;;;;;;;17.30;4.32;;;5.70;99.90;;;;;;5026465;28;20046;-82
2021/12/20 12:02:48;;;;;;;15.40;4.40;;;5.60;99.90;;;;;;5026836;28;20556;-82
2021/12/20 12:05:29;;;;;;;14.07;4.68;;;5.60;99.90;;;;;;4962557;28;20038;-82
2021/12/20 12:08:35;;;;;;;16.35;4.78;;;5.60;99.90;;;;;;4991226;28;20082;-82
2021/12/20 12:11:25;;;;;;;13.52;4.97;;;5.60;99.90;;;;;;4973290;28;20125;-82
2021/12/20 12:14:02;;;;;;;17.70;5.28;;;5.60;99.90;;;;;;4990722;28;20569;-82
2021/12/20 12:16:49;;;;;;;15.55;5.45;;;5.50;99.90;;;;;;4973824;28;20046;-82
2021/12/20 12:19:34;;;;;;;14.52;5.35;;;5.60;99.90;;;;;;4974115;28;20043;-82
2021/12/20 12:22:00;;;;;;;18.20;5.53;;;5.60;99.90;;;;;;4973579;28;20047;-82
2021/12/20 12:24:46;;;;;;;15.73;5.00;;;5.60;99.90;;;;;;4941936;28;20045;-82
2021/12/20 12:27:20;;;;;;;15.20;4.80;;;5.60;99.90;;;;;;4973625;28;20508;-82
2021/12/20 12:29:45;;;;;;;16.10;4.43;;;5.60;99.90;;;;;;4974210;28;20050;-82
2021/12/20 12:32:11;;;;;;;13.65;4.97;;;5.60;99.90;;;;;;4974273;28;20050;-82
2021/12/20 12:34:42;;;;;;;15.70;4.63;;;5.60;99.90;;;;;;4974137;28;20053;-82
2021/12/20 12:37:19;;;;;;;16.00;4.72;;;5.60;99.90;;;;;;4973932;28;20058;-82
2021/12/20 12:39:45;;;;;;;13.80;4.53;;;5.50;99.90;;;;;;4974267;28;20105;-82
2021/12/20 12:42:12;;;;;;;13.98;4.25;;;5.50;99.90;;;;;;4973161;28;20077;-82
2021/12/20 12:44:47;;;;;;;14.88;4.25;;;5.50;99.90;;;;;;4957631;28;20098;-82
2021/12/20 12:47:13;;;;;;;14.55;4.05;;;5.50;99.90;;;;;;4942755;28;20039;-82
2021/12/20 12:49:41;;;;;;;12.52;4.30;;;5.40;99.90;;;;;;4957592;28;20051;-82
2021/12/20 12:52:31;;;;;;;14.40;4.22;;;5.40;99.90;;;;;;4973481;28;20047;-82
2021/12/20 12:55:02;;;;;;;15.98;4.22;;;5.40;99.90;;;;;;4963874;28;20058;-82
2021/12/20 12:57:36;;;;;;;16.45;4.28;;;5.40;99.90;;;;;;4953719;29;20039;-82
2021/12/20 13:00:28;;;;;;;18.85;5.00;;;5.30;99.90;;;;;;4970068;28;20050;-82
2021/12/20 13:03:00;;;;;;;14.38;4.20;;;5.30;99.90;;;;;;4951252;29;20047;-82
2021/12/20 13:05:27;;;;;;;11.60;3.78;;;5.20;99.90;;;;;;4969952;28;20047;-82
2021/12/20 13:08:03;;;;;;;18.15;3.95;;;5.20;99.90;;;;;;4953616;28;20051;-82
2021/12/20 13:10:35;;;;;;;14.75;4.50;;;5.20;99.90;;;;;;4969057;28;20090;-82
2021/12/20 13:13:16;;;;;;;16.23;4.38;;;5.20;99.90;;;;;;4954054;29;20451;-82